Pollockville, Canada
Current Conditions -  °F | °C
As of 2:00 PM on Monday 24 Nov 2014 (Local Time) from CYXH Reporting Station
Clear Clear  
Wind Chill: 35°   Ceiling: Unl
Heat Index: 41°   Visibility: 9mi
Dew Point: 28°   Wind: 10mph
Humidity: 61%   Direction: 230°SW
Pressure: 30.02"   Gusts: NA
Location:  51.1°N, 111.59°W
Report Text: CYXH 242100Z AUTO 23009KT 9SM CLR 05/M02 A3002 RMK SLP191
Loading
Personal Weather Stations






























Interactive Weather Map New forecast layout! Learn more

10-Day Weather Forecast

Advertisements
Track Severe Weather on mobile